sensor_id;sensor_type;location;lat;lon;timestamp;P1;durP1;ratioP1;P2;durP2;ratioP2
30020;SDS011;16861;52.294;7.760;2023-04-03T00:00:29;6.18;;;1.55;;
30020;SDS011;16861;52.294;7.760;2023-04-03T00:02:56;4.40;;;1.45;;
30020;SDS011;16861;52.294;7.760;2023-04-03T00:05:22;5.95;;;1.52;;
30020;SDS011;16861;52.294;7.760;2023-04-03T00:07:48;4.82;;;1.80;;
30020;SDS011;16861;52.294;7.760;2023-04-03T00:10:16;7.30;;;1.92;;
30020;SDS011;16861;52.294;7.760;2023-04-03T00:12:42;3.97;;;1.15;;
30020;SDS011;16861;52.294;7.760;2023-04-03T00:15:09;6.15;;;1.65;;
30020;SDS011;16861;52.294;7.760;2023-04-03T00:17:35;7.40;;;1.83;;
30020;SDS011;16861;52.294;7.760;2023-04-03T00:20:02;5.78;;;1.90;;
30020;SDS011;16861;52.294;7.760;2023-04-03T00:22:29;7.18;;;1.65;;
30020;SDS011;16861;52.294;7.760;2023-04-03T00:24:56;6.15;;;1.40;;
30020;SDS011;16861;52.294;7.760;2023-04-03T00:27:22;5.22;;;1.60;;
30020;SDS011;16861;52.294;7.760;2023-04-03T00:29:49;3.05;;;1.42;;
30020;SDS011;16861;52.294;7.760;2023-04-03T00:32:15;4.28;;;1.40;;
30020;SDS011;16861;52.294;7.760;2023-04-03T00:34:42;5.10;;;1.80;;
30020;SDS011;16861;52.294;7.760;2023-04-03T00:37:08;4.93;;;1.42;;
30020;SDS011;16861;52.294;7.760;2023-04-03T00:39:34;7.15;;;1.58;;
30020;SDS011;16861;52.294;7.760;2023-04-03T00:42:01;6.22;;;1.58;;
30020;SDS011;16861;52.294;7.760;2023-04-03T00:46:54;4.18;;;1.50;;
30020;SDS011;16861;52.294;7.760;2023-04-03T00:49:20;3.58;;;1.33;;
30020;SDS011;16861;52.294;7.760;2023-04-03T00:51:47;3.78;;;1.55;;
30020;SDS011;16861;52.294;7.760;2023-04-03T00:54:13;8.18;;;1.73;;
30020;SDS011;16861;52.294;7.760;2023-04-03T00:56:40;4.68;;;2.03;;
30020;SDS011;16861;52.294;7.760;2023-04-03T00:59:11;6.28;;;2.00;;
30020;SDS011;16861;52.294;7.760;2023-04-03T01:01:51;3.08;;;1.38;;
30020;SDS011;16861;52.294;7.760;2023-04-03T01:04:27;3.45;;;1.33;;
30020;SDS011;16861;52.294;7.760;2023-04-03T01:06:58;6.63;;;1.95;;
30020;SDS011;16861;52.294;7.760;2023-04-03T01:09:30;2.75;;;1.20;;
30020;SDS011;16861;52.294;7.760;2023-04-03T01:12:17;6.20;;;1.63;;
30020;SDS011;16861;52.294;7.760;2023-04-03T01:14:59;3.30;;;1.55;;
30020;SDS011;16861;52.294;7.760;2023-04-03T01:25:32;2.92;;;1.30;;
30020;SDS011;16861;52.294;7.760;2023-04-03T01:27:59;7.43;;;1.77;;
30020;SDS011;16861;52.294;7.760;2023-04-03T01:30:28;6.90;;;1.73;;
30020;SDS011;16861;52.294;7.760;2023-04-03T01:32:58;4.72;;;1.73;;
30020;SDS011;16861;52.294;7.760;2023-04-03T01:35:24;4.93;;;1.77;;
30020;SDS011;16861;52.294;7.760;2023-04-03T01:37:51;4.28;;;1.50;;
30020;SDS011;16861;52.294;7.760;2023-04-03T01:40:17;4.00;;;1.25;;
30020;SDS011;16861;52.294;7.760;2023-04-03T01:42:44;5.18;;;1.60;;
30020;SDS011;16861;52.294;7.760;2023-04-03T01:45:10;3.25;;;1.30;;
30020;SDS011;16861;52.294;7.760;2023-04-03T01:47:37;4.72;;;1.42;;
30020;SDS011;16861;52.294;7.760;2023-04-03T01:50:03;4.25;;;1.85;;
30020;SDS011;16861;52.294;7.760;2023-04-03T01:52:30;6.35;;;1.95;;
30020;SDS011;16861;52.294;7.760;2023-04-03T01:54:56;3.85;;;1.52;;
30020;SDS011;16861;52.294;7.760;2023-04-03T01:57:23;4.60;;;1.27;;
30020;SDS011;16861;52.294;7.760;2023-04-03T01:59:49;2.83;;;1.40;;
30020;SDS011;16861;52.294;7.760;2023-04-03T02:02:17;4.93;;;1.45;;
30020;SDS011;16861;52.294;7.760;2023-04-03T02:04:44;4.90;;;1.60;;
30020;SDS011;16861;52.294;7.760;2023-04-03T02:07:11;1.75;;;1.20;;
30020;SDS011;16861;52.294;7.760;2023-04-03T02:09:37;6.70;;;1.77;;
30020;SDS011;16861;52.294;7.760;2023-04-03T02:12:04;3.53;;;1.52;;
30020;SDS011;16861;52.294;7.760;2023-04-03T02:14:30;4.15;;;1.73;;
30020;SDS011;16861;52.294;7.760;2023-04-03T02:16:57;5.18;;;1.10;;
30020;SDS011;16861;52.294;7.760;2023-04-03T02:19:23;4.13;;;1.63;;
30020;SDS011;16861;52.294;7.760;2023-04-03T02:21:50;6.60;;;1.70;;
30020;SDS011;16861;52.294;7.760;2023-04-03T02:24:16;6.05;;;1.15;;
30020;SDS011;16861;52.294;7.760;2023-04-03T02:26:43;6.25;;;1.75;;
30020;SDS011;16861;52.294;7.760;2023-04-03T02:29:09;3.47;;;1.40;;
30020;SDS011;16861;52.294;7.760;2023-04-03T02:31:35;4.03;;;1.27;;
30020;SDS011;16861;52.294;7.760;2023-04-03T02:34:02;5.63;;;1.42;;
30020;SDS011;16861;52.294;7.760;2023-04-03T02:36:28;5.00;;;1.50;;
30020;SDS011;16861;52.294;7.760;2023-04-03T02:38:58;3.58;;;1.48;;
30020;SDS011;16861;52.294;7.760;2023-04-03T02:41:24;2.70;;;1.17;;
30020;SDS011;16861;52.294;7.760;2023-04-03T02:43:53;4.55;;;1.52;;
30020;SDS011;16861;52.294;7.760;2023-04-03T02:46:20;3.67;;;1.25;;
30020;SDS011;16861;52.294;7.760;2023-04-03T02:48:46;3.13;;;1.40;;
30020;SDS011;16861;52.294;7.760;2023-04-03T02:51:13;5.00;;;1.30;;
30020;SDS011;16861;52.294;7.760;2023-04-03T02:53:39;4.30;;;1.52;;
30020;SDS011;16861;52.294;7.760;2023-04-03T02:56:05;4.43;;;1.45;;
30020;SDS011;16861;52.294;7.760;2023-04-03T02:58:32;6.45;;;1.45;;
30020;SDS011;16861;52.294;7.760;2023-04-03T03:00:58;4.40;;;1.38;;
30020;SDS011;16861;52.294;7.760;2023-04-03T03:03:24;4.70;;;1.35;;
30020;SDS011;16861;52.294;7.760;2023-04-03T03:06:00;3.63;;;1.15;;
30020;SDS011;16861;52.294;7.760;2023-04-03T03:08:27;3.40;;;1.17;;
30020;SDS011;16861;52.294;7.760;2023-04-03T03:10:53;4.80;;;1.60;;
30020;SDS011;16861;52.294;7.760;2023-04-03T03:13:20;2.28;;;1.23;;
30020;SDS011;16861;52.294;7.760;2023-04-03T03:15:46;4.85;;;1.48;;
30020;SDS011;16861;52.294;7.760;2023-04-03T03:18:13;4.35;;;1.23;;
30020;SDS011;16861;52.294;7.760;2023-04-03T03:20:39;2.78;;;1.73;;
30020;SDS011;16861;52.294;7.760;2023-04-03T03:23:06;6.95;;;1.45;;
30020;SDS011;16861;52.294;7.760;2023-04-03T03:25:32;5.72;;;1.30;;
30020;SDS011;16861;52.294;7.760;2023-04-03T03:27:58;5.70;;;1.42;;
30020;SDS011;16861;52.294;7.760;2023-04-03T03:30:25;4.28;;;1.08;;
30020;SDS011;16861;52.294;7.760;2023-04-03T03:32:52;3.42;;;1.30;;
30020;SDS011;16861;52.294;7.760;2023-04-03T03:35:18;4.97;;;1.60;;
30020;SDS011;16861;52.294;7.760;2023-04-03T03:37:45;7.82;;;1.67;;
30020;SDS011;16861;52.294;7.760;2023-04-03T03:40:11;3.08;;;1.30;;
30020;SDS011;16861;52.294;7.760;2023-04-03T03:42:39;5.78;;;1.13;;
30020;SDS011;16861;52.294;7.760;2023-04-03T03:45:06;9.98;;;2.00;;
30020;SDS011;16861;52.294;7.760;2023-04-03T03:50:07;6.40;;;1.73;;
30020;SDS011;16861;52.294;7.760;2023-04-03T03:52:34;9.05;;;1.52;;
30020;SDS011;16861;52.294;7.760;2023-04-03T03:55:01;5.05;;;1.80;;
30020;SDS011;16861;52.294;7.760;2023-04-03T03:57:28;7.43;;;1.55;;
30020;SDS011;16861;52.294;7.760;2023-04-03T03:59:56;3.40;;;1.50;;
30020;SDS011;16861;52.294;7.760;2023-04-03T04:02:23;6.82;;;1.55;;
30020;SDS011;16861;52.294;7.760;2023-04-03T04:04:49;3.78;;;1.20;;
30020;SDS011;16861;52.294;7.760;2023-04-03T04:07:16;2.67;;;1.52;;
30020;SDS011;16861;52.294;7.760;2023-04-03T04:09:43;6.05;;;1.60;;
30020;SDS011;16861;52.294;7.760;2023-04-03T04:12:09;5.10;;;1.50;;
30020;SDS011;16861;52.294;7.760;2023-04-03T04:14:36;4.68;;;1.73;;
30020;SDS011;16861;52.294;7.760;2023-04-03T04:17:02;7.65;;;1.73;;
30020;SDS011;16861;52.294;7.760;2023-04-03T04:19:29;5.47;;;1.55;;
30020;SDS011;16861;52.294;7.760;2023-04-03T04:21:55;2.95;;;1.13;;
30020;SDS011;16861;52.294;7.760;2023-04-03T04:24:22;3.22;;;1.42;;
30020;SDS011;16861;52.294;7.760;2023-04-03T04:26:49;9.95;;;1.85;;
30020;SDS011;16861;52.294;7.760;2023-04-03T04:29:15;5.68;;;1.80;;
30020;SDS011;16861;52.294;7.760;2023-04-03T04:31:42;4.32;;;1.50;;
30020;SDS011;16861;52.294;7.760;2023-04-03T04:34:08;3.05;;;1.30;;
30020;SDS011;16861;52.294;7.760;2023-04-03T04:36:35;6.80;;;2.47;;
30020;SDS011;16861;52.294;7.760;2023-04-03T04:39:02;5.47;;;1.88;;
30020;SDS011;16861;52.294;7.760;2023-04-03T04:41:28;9.85;;;1.95;;
30020;SDS011;16861;52.294;7.760;2023-04-03T04:43:55;5.50;;;1.83;;
30020;SDS011;16861;52.294;7.760;2023-04-03T04:46:21;3.63;;;1.73;;
30020;SDS011;16861;52.294;7.760;2023-04-03T04:48:48;5.95;;;2.00;;
30020;SDS011;16861;52.294;7.760;2023-04-03T04:51:15;8.52;;;1.73;;
30020;SDS011;16861;52.294;7.760;2023-04-03T04:53:42;6.03;;;1.55;;
30020;SDS011;16861;52.294;7.760;2023-04-03T04:56:08;4.85;;;1.42;;
30020;SDS011;16861;52.294;7.760;2023-04-03T04:58:35;8.13;;;1.60;;
30020;SDS011;16861;52.294;7.760;2023-04-03T05:01:05;5.70;;;1.67;;
30020;SDS011;16861;52.294;7.760;2023-04-03T05:03:33;4.38;;;1.70;;
30020;SDS011;16861;52.294;7.760;2023-04-03T05:06:00;5.88;;;1.50;;
30020;SDS011;16861;52.294;7.760;2023-04-03T05:08:27;2.58;;;1.30;;
30020;SDS011;16861;52.294;7.760;2023-04-03T05:10:54;4.72;;;1.70;;
30020;SDS011;16861;52.294;7.760;2023-04-03T05:13:21;5.80;;;1.80;;
30020;SDS011;16861;52.294;7.760;2023-04-03T05:15:48;4.45;;;1.52;;
30020;SDS011;16861;52.294;7.760;2023-04-03T05:18:14;4.85;;;1.65;;
30020;SDS011;16861;52.294;7.760;2023-04-03T05:20:41;4.45;;;1.58;;
30020;SDS011;16861;52.294;7.760;2023-04-03T05:23:09;7.35;;;1.83;;
30020;SDS011;16861;52.294;7.760;2023-04-03T05:25:37;5.93;;;1.60;;
30020;SDS011;16861;52.294;7.760;2023-04-03T05:28:04;5.97;;;1.63;;
30020;SDS011;16861;52.294;7.760;2023-04-03T05:30:31;5.65;;;1.50;;
30020;SDS011;16861;52.294;7.760;2023-04-03T05:32:58;4.50;;;1.75;;
30020;SDS011;16861;52.294;7.760;2023-04-03T05:35:25;4.55;;;1.70;;
30020;SDS011;16861;52.294;7.760;2023-04-03T05:37:51;6.10;;;1.60;;
30020;SDS011;16861;52.294;7.760;2023-04-03T05:40:18;4.40;;;1.45;;
30020;SDS011;16861;52.294;7.760;2023-04-03T05:42:45;6.97;;;1.70;;
30020;SDS011;16861;52.294;7.760;2023-04-03T05:45:12;4.68;;;1.50;;
30020;SDS011;16861;52.294;7.760;2023-04-03T05:47:38;4.07;;;1.33;;
30020;SDS011;16861;52.294;7.760;2023-04-03T05:50:05;5.30;;;1.40;;
30020;SDS011;16861;52.294;7.760;2023-04-03T05:52:36;5.70;;;1.77;;
30020;SDS011;16861;52.294;7.760;2023-04-03T05:55:04;6.80;;;1.73;;
30020;SDS011;16861;52.294;7.760;2023-04-03T05:57:31;4.85;;;1.65;;
30020;SDS011;16861;52.294;7.760;2023-04-03T05:59:58;2.80;;;1.20;;
30020;SDS011;16861;52.294;7.760;2023-04-03T06:02:24;5.93;;;1.48;;
30020;SDS011;16861;52.294;7.760;2023-04-03T06:04:52;5.90;;;1.45;;
30020;SDS011;16861;52.294;7.760;2023-04-03T06:07:20;3.92;;;1.27;;
30020;SDS011;16861;52.294;7.760;2023-04-03T06:09:49;9.05;;;1.83;;
30020;SDS011;16861;52.294;7.760;2023-04-03T06:12:17;7.10;;;1.92;;
30020;SDS011;16861;52.294;7.760;2023-04-03T06:14:45;4.55;;;1.25;;
30020;SDS011;16861;52.294;7.760;2023-04-03T06:17:11;5.38;;;1.52;;
30020;SDS011;16861;52.294;7.760;2023-04-03T06:19:38;5.40;;;1.65;;
30020;SDS011;16861;52.294;7.760;2023-04-03T06:22:05;5.80;;;1.80;;
30020;SDS011;16861;52.294;7.760;2023-04-03T06:24:31;4.45;;;1.50;;
30020;SDS011;16861;52.294;7.760;2023-04-03T06:26:58;8.55;;;2.35;;
30020;SDS011;16861;52.294;7.760;2023-04-03T06:29:25;3.78;;;1.35;;
30020;SDS011;16861;52.294;7.760;2023-04-03T06:31:51;8.77;;;1.77;;
30020;SDS011;16861;52.294;7.760;2023-04-03T06:34:18;8.45;;;1.85;;
30020;SDS011;16861;52.294;7.760;2023-04-03T06:36:45;4.82;;;1.30;;
30020;SDS011;16861;52.294;7.760;2023-04-03T06:39:13;5.38;;;1.38;;
30020;SDS011;16861;52.294;7.760;2023-04-03T06:41:41;7.25;;;1.33;;
30020;SDS011;16861;52.294;7.760;2023-04-03T06:44:08;3.75;;;1.27;;
30020;SDS011;16861;52.294;7.760;2023-04-03T06:46:37;5.50;;;1.77;;
30020;SDS011;16861;52.294;7.760;2023-04-03T06:49:05;4.53;;;1.60;;
30020;SDS011;16861;52.294;7.760;2023-04-03T06:51:34;5.25;;;1.73;;
30020;SDS011;16861;52.294;7.760;2023-04-03T06:54:01;4.07;;;1.50;;
30020;SDS011;16861;52.294;7.760;2023-04-03T06:56:29;4.30;;;1.80;;
30020;SDS011;16861;52.294;7.760;2023-04-03T06:58:56;3.42;;;1.50;;
30020;SDS011;16861;52.294;7.760;2023-04-03T07:01:27;4.95;;;1.55;;
30020;SDS011;16861;52.294;7.760;2023-04-03T07:03:56;7.00;;;2.25;;
30020;SDS011;16861;52.294;7.760;2023-04-03T07:06:23;6.20;;;1.50;;
30020;SDS011;16861;52.294;7.760;2023-04-03T07:08:53;4.97;;;1.42;;
30020;SDS011;16861;52.294;7.760;2023-04-03T07:11:20;6.03;;;1.52;;
30020;SDS011;16861;52.294;7.760;2023-04-03T07:13:47;5.40;;;1.50;;
30020;SDS011;16861;52.294;7.760;2023-04-03T07:16:14;4.88;;;1.45;;
30020;SDS011;16861;52.294;7.760;2023-04-03T07:18:41;5.03;;;1.60;;
30020;SDS011;16861;52.294;7.760;2023-04-03T07:21:08;3.72;;;1.55;;
30020;SDS011;16861;52.294;7.760;2023-04-03T07:23:34;5.32;;;1.60;;
30020;SDS011;16861;52.294;7.760;2023-04-03T07:26:01;5.88;;;1.90;;
30020;SDS011;16861;52.294;7.760;2023-04-03T07:28:28;7.15;;;1.40;;
30020;SDS011;16861;52.294;7.760;2023-04-03T07:31:05;6.43;;;1.70;;
30020;SDS011;16861;52.294;7.760;2023-04-03T07:33:35;5.05;;;1.55;;
30020;SDS011;16861;52.294;7.760;2023-04-03T07:36:03;5.88;;;1.25;;
30020;SDS011;16861;52.294;7.760;2023-04-03T07:38:33;4.47;;;1.58;;
30020;SDS011;16861;52.294;7.760;2023-04-03T07:41:01;8.27;;;1.67;;
30020;SDS011;16861;52.294;7.760;2023-04-03T07:43:29;3.90;;;1.40;;
30020;SDS011;16861;52.294;7.760;2023-04-03T07:45:56;6.18;;;1.60;;
30020;SDS011;16861;52.294;7.760;2023-04-03T07:48:23;3.75;;;1.63;;
30020;SDS011;16861;52.294;7.760;2023-04-03T07:50:51;5.60;;;1.80;;
30020;SDS011;16861;52.294;7.760;2023-04-03T07:53:18;5.68;;;2.08;;
30020;SDS011;16861;52.294;7.760;2023-04-03T07:55:46;4.43;;;1.60;;
30020;SDS011;16861;52.294;7.760;2023-04-03T07:58:14;5.80;;;1.30;;
30020;SDS011;16861;52.294;7.760;2023-04-03T08:00:44;2.88;;;1.05;;
30020;SDS011;16861;52.294;7.760;2023-04-03T08:03:11;3.88;;;1.55;;
30020;SDS011;16861;52.294;7.760;2023-04-03T08:05:39;5.10;;;1.40;;
30020;SDS011;16861;52.294;7.760;2023-04-03T08:08:07;6.72;;;1.60;;
30020;SDS011;16861;52.294;7.760;2023-04-03T08:10:35;4.45;;;1.77;;
30020;SDS011;16861;52.294;7.760;2023-04-03T08:13:02;2.88;;;1.20;;
30020;SDS011;16861;52.294;7.760;2023-04-03T08:15:29;2.42;;;1.10;;
30020;SDS011;16861;52.294;7.760;2023-04-03T08:17:57;5.70;;;1.00;;
30020;SDS011;16861;52.294;7.760;2023-04-03T08:20:24;4.10;;;0.98;;
30020;SDS011;16861;52.294;7.760;2023-04-03T08:22:51;3.40;;;1.00;;
30020;SDS011;16861;52.294;7.760;2023-04-03T08:25:18;3.47;;;1.30;;
30020;SDS011;16861;52.294;7.760;2023-04-03T08:27:44;3.28;;;1.33;;
30020;SDS011;16861;52.294;7.760;2023-04-03T08:30:11;4.68;;;1.15;;
30020;SDS011;16861;52.294;7.760;2023-04-03T08:32:38;9.25;;;1.67;;
30020;SDS011;16861;52.294;7.760;2023-04-03T08:35:05;6.68;;;1.58;;
30020;SDS011;16861;52.294;7.760;2023-04-03T08:37:34;3.25;;;1.35;;
30020;SDS011;16861;52.294;7.760;2023-04-03T08:40:03;5.68;;;1.58;;
30020;SDS011;16861;52.294;7.760;2023-04-03T08:48:21;2.58;;;1.00;;
30020;SDS011;16861;52.294;7.760;2023-04-03T08:51:14;3.50;;;1.10;;
30020;SDS011;16861;52.294;7.760;2023-04-03T08:53:45;3.70;;;1.10;;
30020;SDS011;16861;52.294;7.760;2023-04-03T08:56:20;3.63;;;1.50;;
30020;SDS011;16861;52.294;7.760;2023-04-03T08:58:50;4.30;;;1.00;;
30020;SDS011;16861;52.294;7.760;2023-04-03T09:01:33;3.95;;;1.20;;
30020;SDS011;16861;52.294;7.760;2023-04-03T09:04:03;3.85;;;1.25;;
30020;SDS011;16861;52.294;7.760;2023-04-03T09:06:38;9.05;;;1.30;;
30020;SDS011;16861;52.294;7.760;2023-04-03T09:20:46;2.20;;;0.90;;
30020;SDS011;16861;52.294;7.760;2023-04-03T09:26:14;4.65;;;1.10;;
30020;SDS011;16861;52.294;7.760;2023-04-03T09:28:45;3.47;;;1.08;;
30020;SDS011;16861;52.294;7.760;2023-04-03T09:31:26;5.20;;;1.33;;
30020;SDS011;16861;52.294;7.760;2023-04-03T09:33:58;5.97;;;1.55;;
30020;SDS011;16861;52.294;7.760;2023-04-03T09:41:41;5.03;;;1.10;;
30020;SDS011;16861;52.294;7.760;2023-04-03T09:44:19;4.40;;;1.35;;
30020;SDS011;16861;52.294;7.760;2023-04-03T09:46:48;2.95;;;1.10;;
30020;SDS011;16861;52.294;7.760;2023-04-03T09:49:16;4.10;;;1.65;;
30020;SDS011;16861;52.294;7.760;2023-04-03T09:51:43;2.55;;;1.10;;
30020;SDS011;16861;52.294;7.760;2023-04-03T09:54:24;2.90;;;1.20;;
30020;SDS011;16861;52.294;7.760;2023-04-03T09:56:59;4.18;;;1.15;;
30020;SDS011;16861;52.294;7.760;2023-04-03T09:59:33;3.88;;;0.93;;
30020;SDS011;16861;52.294;7.760;2023-04-03T10:02:02;3.08;;;1.17;;
30020;SDS011;16861;52.294;7.760;2023-04-03T10:04:42;4.07;;;1.20;;
30020;SDS011;16861;52.294;7.760;2023-04-03T10:07:51;4.40;;;1.40;;
30020;SDS011;16861;52.294;7.760;2023-04-03T10:10:24;3.05;;;1.25;;
30020;SDS011;16861;52.294;7.760;2023-04-03T10:13:34;4.03;;;1.17;;
30020;SDS011;16861;52.294;7.760;2023-04-03T10:15:51;4.22;;;1.25;;
30020;SDS011;16861;52.294;7.760;2023-04-03T10:21:43;4.68;;;1.75;;
30020;SDS011;16861;52.294;7.760;2023-04-03T10:24:18;3.80;;;1.10;;
30020;SDS011;16861;52.294;7.760;2023-04-03T10:27:05;3.53;;;1.65;;
30020;SDS011;16861;52.294;7.760;2023-04-03T10:43:43;7.55;;;1.90;;
30020;SDS011;16861;52.294;7.760;2023-04-03T10:56:55;9.23;;;5.90;;
30020;SDS011;16861;52.294;7.760;2023-04-03T11:02:48;26.15;;;12.45;;
30020;SDS011;16861;52.294;7.760;2023-04-03T11:05:26;24.40;;;10.50;;
30020;SDS011;16861;52.294;7.760;2023-04-03T11:11:17;8.13;;;3.08;;
30020;SDS011;16861;52.294;7.760;2023-04-03T11:13:50;18.95;;;9.75;;
30020;SDS011;16861;52.294;7.760;2023-04-03T11:16:23;13.55;;;4.72;;
30020;SDS011;16861;52.294;7.760;2023-04-03T11:21:36;12.30;;;7.20;;
30020;SDS011;16861;52.294;7.760;2023-04-03T11:24:15;6.28;;;3.08;;
30020;SDS011;16861;52.294;7.760;2023-04-03T11:26:47;6.82;;;3.75;;
30020;SDS011;16861;52.294;7.760;2023-04-03T11:29:19;6.40;;;2.35;;
30020;SDS011;16861;52.294;7.760;2023-04-03T11:32:09;3.00;;;1.55;;
30020;SDS011;16861;52.294;7.760;2023-04-03T11:34:41;5.38;;;1.65;;
30020;SDS011;16861;52.294;7.760;2023-04-03T11:37:13;8.13;;;4.93;;
30020;SDS011;16861;52.294;7.760;2023-04-03T11:40:00;3.33;;;1.75;;
30020;SDS011;16861;52.294;7.760;2023-04-03T11:42:33;3.37;;;1.63;;
30020;SDS011;16861;52.294;7.760;2023-04-03T11:47:54;4.15;;;1.60;;
30020;SDS011;16861;52.294;7.760;2023-04-03T11:53:02;8.35;;;3.45;;
30020;SDS011;16861;52.294;7.760;2023-04-03T12:08:23;4.82;;;1.80;;
30020;SDS011;16861;52.294;7.760;2023-04-03T12:16:19;7.65;;;4.80;;
30020;SDS011;16861;52.294;7.760;2023-04-03T12:21:19;6.78;;;3.85;;
30020;SDS011;16861;52.294;7.760;2023-04-03T12:24:30;5.50;;;2.25;;
30020;SDS011;16861;52.294;7.760;2023-04-03T12:26:44;4.03;;;1.88;;
30020;SDS011;16861;52.294;7.760;2023-04-03T12:32:06;3.42;;;1.85;;
30020;SDS011;16861;52.294;7.760;2023-04-03T12:35:08;5.78;;;2.50;;
30020;SDS011;16861;52.294;7.760;2023-04-03T12:37:51;2.50;;;1.48;;
30020;SDS011;16861;52.294;7.760;2023-04-03T12:48:24;4.15;;;1.30;;
30020;SDS011;16861;52.294;7.760;2023-04-03T12:50:52;3.20;;;1.20;;
30020;SDS011;16861;52.294;7.760;2023-04-03T12:53:23;1.98;;;1.05;;
30020;SDS011;16861;52.294;7.760;2023-04-03T12:56:17;6.50;;;1.40;;
30020;SDS011;16861;52.294;7.760;2023-04-03T12:58:50;5.22;;;1.02;;
30020;SDS011;16861;52.294;7.760;2023-04-03T13:01:18;2.38;;;1.00;;
30020;SDS011;16861;52.294;7.760;2023-04-03T13:03:49;4.43;;;1.20;;
30020;SDS011;16861;52.294;7.760;2023-04-03T13:09:17;4.40;;;1.30;;
30020;SDS011;16861;52.294;7.760;2023-04-03T13:11:48;3.70;;;1.00;;
30020;SDS011;16861;52.294;7.760;2023-04-03T13:14:19;1.95;;;1.27;;
30020;SDS011;16861;52.294;7.760;2023-04-03T13:17:10;2.15;;;0.90;;
30020;SDS011;16861;52.294;7.760;2023-04-03T13:19:40;2.40;;;1.00;;
30020;SDS011;16861;52.294;7.760;2023-04-03T13:22:26;3.70;;;1.00;;
30020;SDS011;16861;52.294;7.760;2023-04-03T13:24:54;4.85;;;2.40;;
30020;SDS011;16861;52.294;7.760;2023-04-03T13:27:22;2.17;;;1.17;;
30020;SDS011;16861;52.294;7.760;2023-04-03T13:29:50;2.40;;;1.10;;
30020;SDS011;16861;52.294;7.760;2023-04-03T13:32:20;3.28;;;1.00;;
30020;SDS011;16861;52.294;7.760;2023-04-03T13:34:49;4.93;;;1.38;;
30020;SDS011;16861;52.294;7.760;2023-04-03T13:37:20;4.20;;;1.30;;
30020;SDS011;16861;52.294;7.760;2023-04-03T13:39:57;7.97;;;1.27;;
30020;SDS011;16861;52.294;7.760;2023-04-03T13:42:40;4.28;;;0.93;;
30020;SDS011;16861;52.294;7.760;2023-04-03T13:47:43;3.22;;;0.98;;
30020;SDS011;16861;52.294;7.760;2023-04-03T13:52:52;2.55;;;1.00;;
30020;SDS011;16861;52.294;7.760;2023-04-03T13:55:28;3.35;;;0.93;;
30020;SDS011;16861;52.294;7.760;2023-04-03T14:03:24;3.10;;;1.20;;
30020;SDS011;16861;52.294;7.760;2023-04-03T14:05:54;3.30;;;1.00;;
30020;SDS011;16861;52.294;7.760;2023-04-03T14:08:21;2.22;;;0.98;;
30020;SDS011;16861;52.294;7.760;2023-04-03T14:11:05;1.75;;;1.10;;
30020;SDS011;16861;52.294;7.760;2023-04-03T14:13:32;2.28;;;1.15;;
30020;SDS011;16861;52.294;7.760;2023-04-03T14:15:58;3.03;;;1.23;;
30020;SDS011;16861;52.294;7.760;2023-04-03T14:18:41;1.60;;;0.93;;
30020;SDS011;16861;52.294;7.760;2023-04-03T14:21:11;2.97;;;0.93;;
30020;SDS011;16861;52.294;7.760;2023-04-03T14:23:39;3.65;;;1.30;;
30020;SDS011;16861;52.294;7.760;2023-04-03T14:26:13;2.42;;;0.93;;
30020;SDS011;16861;52.294;7.760;2023-04-03T14:28:42;3.53;;;1.15;;
30020;SDS011;16861;52.294;7.760;2023-04-03T14:31:11;2.67;;;1.08;;
30020;SDS011;16861;52.294;7.760;2023-04-03T14:33:39;2.92;;;1.08;;
30020;SDS011;16861;52.294;7.760;2023-04-03T14:38:38;3.15;;;1.10;;
30020;SDS011;16861;52.294;7.760;2023-04-03T14:41:04;3.55;;;1.45;;
30020;SDS011;16861;52.294;7.760;2023-04-03T14:43:42;3.30;;;1.02;;
30020;SDS011;16861;52.294;7.760;2023-04-03T14:46:11;3.40;;;0.90;;
30020;SDS011;16861;52.294;7.760;2023-04-03T14:49:19;2.25;;;1.10;;
30020;SDS011;16861;52.294;7.760;2023-04-03T14:51:49;2.50;;;1.20;;
30020;SDS011;16861;52.294;7.760;2023-04-03T14:54:17;3.15;;;1.33;;
30020;SDS011;16861;52.294;7.760;2023-04-03T14:56:51;2.83;;;1.00;;
30020;SDS011;16861;52.294;7.760;2023-04-03T14:59:18;1.08;;;0.73;;
30020;SDS011;16861;52.294;7.760;2023-04-03T15:01:47;2.78;;;1.05;;
30020;SDS011;16861;52.294;7.760;2023-04-03T15:04:15;3.38;;;1.20;;
30020;SDS011;16861;52.294;7.760;2023-04-03T15:06:46;2.58;;;1.15;;
30020;SDS011;16861;52.294;7.760;2023-04-03T15:09:20;0.95;;;0.80;;
30020;SDS011;16861;52.294;7.760;2023-04-03T15:11:49;3.03;;;1.02;;
30020;SDS011;16861;52.294;7.760;2023-04-03T15:14:17;3.17;;;1.00;;
30020;SDS011;16861;52.294;7.760;2023-04-03T15:17:01;3.60;;;0.98;;
30020;SDS011;16861;52.294;7.760;2023-04-03T15:19:30;4.55;;;1.20;;
30020;SDS011;16861;52.294;7.760;2023-04-03T15:22:01;1.48;;;0.90;;
30020;SDS011;16861;52.294;7.760;2023-04-03T15:24:28;2.10;;;0.93;;
30020;SDS011;16861;52.294;7.760;2023-04-03T15:26:54;2.08;;;1.00;;
30020;SDS011;16861;52.294;7.760;2023-04-03T15:29:21;2.55;;;1.00;;
30020;SDS011;16861;52.294;7.760;2023-04-03T15:31:47;1.55;;;0.80;;
30020;SDS011;16861;52.294;7.760;2023-04-03T15:34:15;2.00;;;1.00;;
30020;SDS011;16861;52.294;7.760;2023-04-03T15:36:43;1.27;;;0.75;;
30020;SDS011;16861;52.294;7.760;2023-04-03T15:39:09;2.35;;;1.15;;
30020;SDS011;16861;52.294;7.760;2023-04-03T15:41:36;2.30;;;1.00;;
30020;SDS011;16861;52.294;7.760;2023-04-03T15:44:02;1.27;;;0.88;;
30020;SDS011;16861;52.294;7.760;2023-04-03T15:46:29;1.63;;;0.98;;
30020;SDS011;16861;52.294;7.760;2023-04-03T15:51:43;2.10;;;1.00;;
30020;SDS011;16861;52.294;7.760;2023-04-03T15:54:22;2.17;;;1.10;;
30020;SDS011;16861;52.294;7.760;2023-04-03T15:56:50;2.10;;;0.90;;
30020;SDS011;16861;52.294;7.760;2023-04-03T15:59:17;2.88;;;1.05;;
30020;SDS011;16861;52.294;7.760;2023-04-03T16:01:43;2.03;;;1.15;;
30020;SDS011;16861;52.294;7.760;2023-04-03T16:04:11;3.22;;;1.17;;
30020;SDS011;16861;52.294;7.760;2023-04-03T16:06:39;2.15;;;1.02;;
30020;SDS011;16861;52.294;7.760;2023-04-03T16:09:06;2.72;;;1.17;;
30020;SDS011;16861;52.294;7.760;2023-04-03T16:11:42;2.00;;;1.00;;
30020;SDS011;16861;52.294;7.760;2023-04-03T16:14:09;2.83;;;1.52;;
30020;SDS011;16861;52.294;7.760;2023-04-03T16:16:36;2.80;;;0.88;;
30020;SDS011;16861;52.294;7.760;2023-04-03T16:19:03;7.32;;;1.50;;
30020;SDS011;16861;52.294;7.760;2023-04-03T16:21:31;3.75;;;1.00;;
30020;SDS011;16861;52.294;7.760;2023-04-03T16:23:58;3.58;;;1.10;;
30020;SDS011;16861;52.294;7.760;2023-04-03T16:26:25;4.40;;;1.13;;
30020;SDS011;16861;52.294;7.760;2023-04-03T16:28:52;2.63;;;1.40;;
30020;SDS011;16861;52.294;7.760;2023-04-03T16:31:20;3.80;;;1.33;;
30020;SDS011;16861;52.294;7.760;2023-04-03T16:33:47;2.33;;;1.08;;
30020;SDS011;16861;52.294;7.760;2023-04-03T16:36:14;2.92;;;1.23;;
30020;SDS011;16861;52.294;7.760;2023-04-03T16:38:41;2.78;;;1.10;;
30020;SDS011;16861;52.294;7.760;2023-04-03T16:41:07;2.50;;;1.00;;
30020;SDS011;16861;52.294;7.760;2023-04-03T16:43:34;2.10;;;0.90;;
30020;SDS011;16861;52.294;7.760;2023-04-03T16:46:02;1.85;;;1.05;;
30020;SDS011;16861;52.294;7.760;2023-04-03T16:48:29;2.80;;;1.02;;
30020;SDS011;16861;52.294;7.760;2023-04-03T16:50:56;2.30;;;1.10;;
30020;SDS011;16861;52.294;7.760;2023-04-03T16:53:24;3.53;;;1.58;;
30020;SDS011;16861;52.294;7.760;2023-04-03T16:55:51;2.95;;;1.17;;
30020;SDS011;16861;52.294;7.760;2023-04-03T16:58:18;4.15;;;1.33;;
30020;SDS011;16861;52.294;7.760;2023-04-03T17:00:47;2.55;;;1.10;;
30020;SDS011;16861;52.294;7.760;2023-04-03T17:03:14;3.38;;;1.30;;
30020;SDS011;16861;52.294;7.760;2023-04-03T17:05:41;2.95;;;1.38;;
30020;SDS011;16861;52.294;7.760;2023-04-03T17:08:09;4.25;;;1.05;;
30020;SDS011;16861;52.294;7.760;2023-04-03T17:10:36;4.30;;;1.30;;
30020;SDS011;16861;52.294;7.760;2023-04-03T17:13:02;2.58;;;1.35;;